Glenwood Springs, CO (81601)

1:07 PM MST on December 22, 2014 (GMT -0700)
Elk Springs | Change Station
CLOSE
Current Station
Personal Weather Station
Location: Glenwood Springs, CO
Elevation: 6988 ft
Nearby Weather Stations
Active Advisory: Winter Storm Warning Active Notice: Public Information Statement

Elev 6988 ft 39.48 °N, 107.25 °W | Updated 7 minutes ago

Overcast
Overcast
37.2 °F
Feels Like 30 °F
N
9.9
Wind Variable Wind from West

Today
High -- | Low -- °F
--% Chance of Precip.
Yesterday
High -- | Low -- °F
Precip. -- in
7:26 AM 4:49 PM
New Moon, 1% visible
Pressure 29.79 in
Visibility 10.0 miles
Clouds Few 4800 ft
Scattered Clouds 6000 ft
Scattered Clouds 11000 ft
Windchill 30 °F
Dew Point 32 °F
Humidity 80%
Rainfall 0.00 in
Snow Depth Not available.
UV 2 out of 12
Pollen .10 out of 12
Air Quality Not available.
Flu Activity Not available.
METAR KRIL 221953Z AUTO 26009KT 10SM FEW048 SCT060 SCT110 03/M01 A2979 RMK AO2 SLP087 T00331011

More Conditions Fewer Conditions

Pressure 29.79 in
Visibility 10.0 miles
Clouds Few 4800 ft
Scattered Clouds 6000 ft
Scattered Clouds 11000 ft
Windchill 30 °F
Dew Point 32 °F
Humidity 80%
Rainfall 0.00 in
Snow Depth Not available.
UV 2 out of 12
Pollen .10 out of 12
Air Quality Not available.
Flu Activity Not available.
METAR KRIL 221953Z AUTO 26009KT 10SM FEW048 SCT060 SCT110 03/M01 A2979 RMK AO2 SLP087 T00331011

More Conditions Fewer Conditions

10-Day Weather Forecast

Almanac

Astronomy

Dec. 22, 2014 Rise Set
Actual Time
Civil Twilight
Nautical Twilight
Astronomical Twilight
Moon
Length of Visible Light
Length of Day
Tomorrow will be .
, % of the Moon is Illuminated

Today's Extremes

State Highs State Lows

Community

WunderPhotos

Upload Photos

1,779,708 photos uploaded!

WunderBlogs® & News

Nearby

Air Quality

  Air Quality AQ Index Pollutant
Not available.

Snow Depth

Station Depth Elevation

Earthquake Activity

City Distance Mag. Time & Date
Minimum magnitude displayed is 2.5.

Coastal Water Temperatures

Place Temperature

Nearby Weather Stations